Time;durP1;ratioP1;P1;durP2;ratioP2;P2;SDS_P1;SDS_P2;PMS_P1;PMS_P2;Temp;Humidity;BMP_temperature;BMP_pressure;BME280_temperature;BME280_humidity;BME280_pressure;Samples;Min_cycle;Max_cycle;Signal;HPM_P1;HPM_P2
2022/06/11 00:01:46;;;;;;;5.00;3.10;;;11.60;99.90;;;;;;5049297;28;20464;-56
2022/06/11 00:04:16;;;;;;;7.57;3.57;;;11.50;99.90;;;;;;5049318;28;20500;-55
2022/06/11 00:06:46;;;;;;;3.83;3.40;;;11.50;99.90;;;;;;5038757;28;20875;-55
2022/06/11 00:09:12;;;;;;;4.33;3.70;;;11.50;99.90;;;;;;5054451;28;20469;-56
2022/06/11 00:11:38;;;;;;;4.97;3.30;;;11.40;99.90;;;;;;5053284;28;20963;-57
2022/06/11 00:14:05;;;;;;;11.03;4.20;;;11.40;99.90;;;;;;5049051;28;20444;-57
2022/06/11 00:16:31;;;;;;;4.87;3.73;;;11.40;99.90;;;;;;5051890;28;20413;-56
2022/06/11 00:18:58;;;;;;;5.00;3.80;;;11.40;99.90;;;;;;5048106;28;20451;-57
2022/06/11 00:21:27;;;;;;;4.07;3.47;;;11.30;99.90;;;;;;5043813;28;20531;-56
2022/06/11 00:23:53;;;;;;;4.63;3.20;;;11.30;99.90;;;;;;5034059;28;20457;-56
2022/06/11 00:26:20;;;;;;;6.23;3.20;;;11.30;99.90;;;;;;5029960;28;20419;-57
2022/06/11 00:28:47;;;;;;;5.53;3.47;;;11.20;99.90;;;;;;5037311;28;20434;-58
2022/06/11 00:31:13;;;;;;;8.57;3.83;;;11.20;99.90;;;;;;5054182;28;20422;-55
2022/06/11 00:33:40;;;;;;;3.90;3.50;;;11.20;99.90;;;;;;5055302;28;20429;-57
2022/06/11 00:38:40;;;;;;;4.40;3.40;;;11.10;99.90;;;;;;5054515;22;20493;-58
2022/06/11 00:41:07;;;;;;;3.80;3.30;;;11.10;99.90;;;;;;5026841;28;20466;-59
2022/06/11 00:43:33;;;;;;;7.30;3.60;;;11.00;99.90;;;;;;5026713;28;20438;-60
2022/06/11 00:46:40;;;;;;;5.43;3.50;;;11.00;99.90;;;;;;5010962;28;20398;-59
2022/06/11 00:49:19;;;;;;;4.00;3.50;;;11.00;99.90;;;;;;4992563;28;20527;-60
2022/06/11 00:51:46;;;;;;;4.23;3.20;;;10.90;99.90;;;;;;5010773;28;20441;-59
2022/06/11 00:54:17;;;;;;;3.70;3.40;;;10.90;99.90;;;;;;5016860;28;20485;-60
2022/06/11 00:56:47;;;;;;;4.40;3.40;;;10.90;99.90;;;;;;5015969;28;20455;-59
2022/06/11 00:59:21;;;;;;;9.10;3.33;;;10.80;99.90;;;;;;4995506;28;20417;-58
2022/06/11 01:01:47;;;;;;;4.27;3.20;;;10.80;99.90;;;;;;5030215;28;20447;-60
2022/06/11 01:04:34;;;;;;;4.33;3.60;;;10.80;99.90;;;;;;5005278;28;20423;-59
2022/06/11 01:07:25;;;;;;;5.00;3.53;;;10.70;99.90;;;;;;5006670;28;20283;-59
2022/06/11 01:10:16;;;;;;;6.40;3.30;;;10.70;99.90;;;;;;5006417;28;20459;-59
2022/06/11 01:13:04;;;;;;;3.50;3.20;;;10.70;99.90;;;;;;5002319;28;20435;-59
2022/06/11 01:15:39;;;;;;;5.03;3.20;;;10.70;99.90;;;;;;5017377;28;20431;-60
2022/06/11 01:18:14;;;;;;;5.53;3.80;;;10.70;99.90;;;;;;5011712;28;20427;-60
2022/06/11 01:20:39;;;;;;;4.23;3.50;;;10.60;99.90;;;;;;5003174;28;20432;-59
2022/06/11 01:23:51;;;;;;;5.07;3.30;;;10.60;99.90;;;;;;5006373;28;20803;-59
2022/06/11 01:26:35;;;;;;;6.13;3.97;;;10.60;99.90;;;;;;5010552;28;20679;-59
2022/06/11 01:29:06;;;;;;;11.17;4.30;;;10.60;99.90;;;;;;5005434;28;20433;-59
2022/06/11 01:31:46;;;;;;;5.67;3.10;;;10.50;99.90;;;;;;5008394;28;20483;-59
2022/06/11 01:34:49;;;;;;;6.20;3.67;;;10.50;99.90;;;;;;4999878;28;20517;-59
2022/06/11 01:37:29;;;;;;;3.90;3.60;;;10.50;99.90;;;;;;4994024;28;20486;-59
2022/06/11 01:40:01;;;;;;;9.53;3.67;;;10.50;99.90;;;;;;5007000;28;20450;-60
2022/06/11 01:42:34;;;;;;;3.87;3.30;;;10.40;99.90;;;;;;5008475;28;20857;-60
2022/06/11 01:45:28;;;;;;;7.07;3.43;;;10.40;99.90;;;;;;4999610;28;20428;-60
2022/06/11 01:47:55;;;;;;;3.57;3.13;;;10.40;99.90;;;;;;4996552;28;20455;-60
2022/06/11 01:50:25;;;;;;;4.73;3.30;;;10.40;99.90;;;;;;5009691;28;20438;-60
2022/06/11 01:53:14;;;;;;;3.90;3.20;;;10.40;99.90;;;;;;4992577;28;20472;-60
2022/06/11 01:56:02;;;;;;;3.60;3.30;;;10.40;99.90;;;;;;5019179;28;20415;-58
2022/06/11 01:58:49;;;;;;;4.70;3.53;;;10.40;99.90;;;;;;5021286;28;20562;-60
2022/06/11 02:01:26;;;;;;;14.07;5.20;;;10.40;99.90;;;;;;5009253;28;20472;-58
2022/06/11 02:04:04;;;;;;;6.47;3.83;;;10.30;99.90;;;;;;4990529;28;20499;-58
2022/06/11 02:07:01;;;;;;;3.53;3.23;;;10.30;99.90;;;;;;5000306;28;20431;-59
2022/06/11 02:10:09;;;;;;;5.97;3.47;;;10.30;99.90;;;;;;5015188;28;20460;-58
2022/06/11 02:13:06;;;;;;;3.10;2.90;;;10.20;99.90;;;;;;4980942;28;20763;-59
2022/06/11 02:16:12;;;;;;;5.27;3.40;;;10.20;99.90;;;;;;5013580;28;22417;-60
2022/06/11 02:18:40;;;;;;;4.90;3.27;;;10.20;99.90;;;;;;5016839;28;20466;-59
2022/06/11 02:21:11;;;;;;;3.80;3.37;;;10.10;99.90;;;;;;5018549;28;20549;-59
2022/06/11 02:23:41;;;;;;;3.90;2.93;;;10.10;99.90;;;;;;5029586;28;20426;-59
2022/06/11 02:26:36;;;;;;;4.47;3.20;;;10.10;99.90;;;;;;5018129;28;20545;-59
2022/06/11 02:29:04;;;;;;;3.63;3.30;;;10.10;99.90;;;;;;4987509;28;20440;-59
2022/06/11 02:31:34;;;;;;;4.07;3.40;;;10.00;99.90;;;;;;4992518;28;20470;-60
2022/06/11 02:34:05;;;;;;;7.60;3.57;;;10.00;99.90;;;;;;5016960;28;20864;-59
2022/06/11 02:36:42;;;;;;;11.50;3.30;;;10.00;99.90;;;;;;5027157;28;20513;-59
2022/06/11 02:39:09;;;;;;;4.47;3.67;;;10.00;99.90;;;;;;4992900;28;20951;-60
2022/06/11 02:41:35;;;;;;;4.83;3.40;;;10.00;99.90;;;;;;5015428;28;20461;-60
2022/06/11 02:44:02;;;;;;;6.13;3.57;;;10.00;99.90;;;;;;5006902;28;20501;-58
2022/06/11 02:46:41;;;;;;;5.63;3.80;;;10.00;99.90;;;;;;5011394;28;20581;-59
2022/06/11 02:49:08;;;;;;;8.47;3.63;;;10.00;99.90;;;;;;5014941;28;20483;-59
2022/06/11 02:51:34;;;;;;;5.53;3.80;;;10.00;99.90;;;;;;5013145;28;20615;-61
2022/06/11 02:54:00;;;;;;;4.63;3.63;;;9.90;99.90;;;;;;5004600;28;20973;-59
2022/06/11 02:56:26;;;;;;;7.30;3.30;;;9.90;99.90;;;;;;5012934;28;20183;-59
2022/06/11 02:58:51;;;;;;;8.70;3.73;;;9.90;99.90;;;;;;4994825;28;20439;-60
2022/06/11 03:01:19;;;;;;;4.67;3.63;;;9.90;99.90;;;;;;5013309;28;20204;-59
2022/06/11 03:03:45;;;;;;;6.10;3.80;;;9.90;99.90;;;;;;5010287;28;20187;-60
2022/06/11 03:06:11;;;;;;;5.03;3.73;;;9.90;99.90;;;;;;5000819;28;20440;-60
2022/06/11 03:08:38;;;;;;;10.53;3.90;;;9.90;99.90;;;;;;5008052;28;20459;-58
2022/06/11 03:11:03;;;;;;;3.90;3.50;;;9.80;99.90;;;;;;5015041;28;20180;-58
2022/06/11 03:13:30;;;;;;;6.40;3.53;;;9.80;99.90;;;;;;5000442;28;20527;-60
2022/06/11 03:15:57;;;;;;;3.30;3.00;;;9.80;99.90;;;;;;5004728;28;20625;-60
2022/06/11 03:18:23;;;;;;;6.87;3.40;;;9.80;99.90;;;;;;5015231;28;20460;-59
2022/06/11 03:20:50;;;;;;;7.23;3.17;;;9.70;99.90;;;;;;5021366;28;20443;-59
2022/06/11 03:23:16;;;;;;;5.17;3.70;;;9.70;99.90;;;;;;5009213;28;20498;-60
2022/06/11 03:25:42;;;;;;;6.87;3.73;;;9.60;99.90;;;;;;5009100;28;20533;-60
2022/06/11 03:28:11;;;;;;;3.60;3.30;;;9.60;99.90;;;;;;5005381;28;20259;-59
2022/06/11 03:30:37;;;;;;;5.43;4.80;;;9.60;99.90;;;;;;5018676;28;20268;-60
2022/06/11 03:33:04;;;;;;;6.93;4.13;;;9.60;99.90;;;;;;5013253;28;20443;-58
2022/06/11 03:35:30;;;;;;;5.47;4.07;;;9.60;99.90;;;;;;5016433;28;20518;-60
2022/06/11 03:37:56;;;;;;;4.10;3.67;;;9.50;99.90;;;;;;5024959;28;20537;-59
2022/06/11 03:40:22;;;;;;;9.33;3.50;;;9.50;99.90;;;;;;5032541;28;20203;-59
2022/06/11 03:42:47;;;;;;;4.93;3.87;;;9.60;99.90;;;;;;5019777;28;20212;-59
2022/06/11 03:45:13;;;;;;;4.70;4.00;;;9.60;99.90;;;;;;5004652;28;20442;-58
2022/06/11 03:47:40;;;;;;;6.30;3.70;;;9.60;99.90;;;;;;5012641;28;20192;-59
2022/06/11 03:50:16;;;;;;;8.97;4.67;;;9.60;99.90;;;;;;5012480;28;20423;-57
2022/06/11 03:52:41;;;;;;;4.97;3.83;;;9.60;99.90;;;;;;5013003;28;20432;-58
2022/06/11 03:55:07;;;;;;;5.80;3.97;;;9.60;99.90;;;;;;4999312;28;20434;-59
2022/06/11 03:57:34;;;;;;;4.43;4.00;;;9.60;99.90;;;;;;5008209;28;20257;-59
2022/06/11 04:00:02;;;;;;;3.80;3.47;;;9.60;99.90;;;;;;5011073;28;21155;-60
2022/06/11 04:02:28;;;;;;;4.70;3.43;;;9.60;99.90;;;;;;5002381;28;20469;-59
2022/06/11 04:04:54;;;;;;;5.70;4.03;;;9.60;99.90;;;;;;5006656;28;20435;-59
2022/06/11 04:07:20;;;;;;;4.00;3.47;;;9.60;99.90;;;;;;4993941;28;20514;-59
2022/06/11 04:09:46;;;;;;;5.67;3.13;;;9.60;99.90;;;;;;5003675;28;20435;-60
2022/06/11 04:12:15;;;;;;;5.40;3.53;;;9.70;99.90;;;;;;4996839;28;20845;-59
2022/06/11 04:14:43;;;;;;;4.37;3.40;;;9.70;99.90;;;;;;5013168;28;20442;-60
2022/06/11 04:17:31;;;;;;;5.87;3.40;;;9.70;99.90;;;;;;5019231;28;20469;-59
2022/06/11 04:19:57;;;;;;;6.13;4.10;;;9.80;99.90;;;;;;4992690;28;20940;-59
2022/06/11 04:22:23;;;;;;;5.47;3.70;;;9.80;99.90;;;;;;5008936;28;20467;-59
2022/06/11 04:24:50;;;;;;;6.60;5.10;;;9.80;99.90;;;;;;5008179;28;20451;-59
2022/06/11 04:27:18;;;;;;;8.83;3.70;;;9.90;99.90;;;;;;5015973;28;20450;-60
2022/06/11 04:29:53;;;;;;;8.60;4.07;;;9.90;99.90;;;;;;5010610;28;20419;-60
2022/06/11 04:32:20;;;;;;;5.70;3.90;;;9.90;99.90;;;;;;5016466;28;20430;-59
2022/06/11 04:34:48;;;;;;;12.30;3.90;;;10.00;99.90;;;;;;5014648;28;20447;-59
2022/06/11 04:37:16;;;;;;;3.87;3.57;;;10.00;99.90;;;;;;5007366;28;20534;-59
2022/06/11 04:39:45;;;;;;;4.77;4.10;;;10.00;99.90;;;;;;5008546;28;20440;-59
2022/06/11 04:42:13;;;;;;;6.83;4.00;;;10.00;99.90;;;;;;5010348;28;20914;-59
2022/06/11 04:44:40;;;;;;;6.23;4.17;;;10.00;99.90;;;;;;4991853;28;20444;-59
2022/06/11 04:47:08;;;;;;;4.43;4.00;;;10.00;99.90;;;;;;5007118;28;20479;-59
2022/06/11 04:49:34;;;;;;;7.57;4.80;;;10.10;99.90;;;;;;4996635;28;20408;-59
2022/06/11 04:52:00;;;;;;;5.10;4.60;;;10.10;99.90;;;;;;5001480;28;20983;-59
2022/06/11 04:54:26;;;;;;;5.17;4.50;;;10.20;99.90;;;;;;5010670;28;20201;-59
2022/06/11 04:56:51;;;;;;;5.90;5.30;;;10.30;99.90;;;;;;5016528;28;20530;-60
2022/06/11 04:59:17;;;;;;;10.10;4.00;;;10.40;99.90;;;;;;5006301;28;20681;-59
2022/06/11 05:01:44;;;;;;;7.80;4.10;;;10.40;99.90;;;;;;5013153;28;20277;-60
2022/06/11 05:04:11;;;;;;;4.43;4.03;;;10.50;99.90;;;;;;5009275;28;20192;-60
2022/06/11 05:06:39;;;;;;;5.03;3.47;;;10.60;99.90;;;;;;5028466;28;20434;-59
2022/06/11 05:09:07;;;;;;;5.13;4.23;;;10.70;99.90;;;;;;5011715;28;20415;-59
2022/06/11 05:11:33;;;;;;;6.93;4.10;;;10.70;99.90;;;;;;5002956;28;20454;-59
2022/06/11 05:13:59;;;;;;;7.57;3.90;;;10.80;99.90;;;;;;5006740;28;20447;-60
2022/06/11 05:16:25;;;;;;;6.23;4.50;;;10.90;99.90;;;;;;5006777;28;20602;-60
2022/06/11 05:18:51;;;;;;;6.13;4.40;;;11.00;99.90;;;;;;5016789;28;20587;-60
2022/06/11 05:21:18;;;;;;;10.40;4.80;;;11.00;99.90;;;;;;5020150;28;20462;-59
2022/06/11 05:23:43;;;;;;;9.90;5.07;;;11.10;99.90;;;;;;5012878;28;20172;-59
2022/06/11 05:26:13;;;;;;;8.33;5.20;;;11.10;99.90;;;;;;5009334;28;20435;-59
2022/06/11 05:28:39;;;;;;;8.93;5.07;;;11.20;99.90;;;;;;4999718;28;20287;-59
2022/06/11 05:31:05;;;;;;;6.80;4.50;;;11.30;99.90;;;;;;5012994;28;20566;-59
2022/06/11 05:33:30;;;;;;;10.90;5.40;;;11.30;99.90;;;;;;5010683;28;20172;-59
2022/06/11 05:35:56;;;;;;;7.97;4.47;;;11.40;99.90;;;;;;5006572;28;20188;-61
2022/06/11 05:38:27;;;;;;;8.57;4.67;;;11.50;99.90;;;;;;5008330;28;20216;-59
2022/06/11 05:40:54;;;;;;;12.80;5.87;;;11.60;99.90;;;;;;5008832;28;20558;-59
2022/06/11 05:43:21;;;;;;;9.40;6.23;;;11.70;99.90;;;;;;5009454;28;20427;-59
2022/06/11 05:45:49;;;;;;;11.40;7.13;;;11.80;99.90;;;;;;5003813;28;20455;-58
2022/06/11 05:48:17;;;;;;;7.13;6.00;;;11.90;99.90;;;;;;5021271;28;20439;-59
2022/06/11 05:50:47;;;;;;;8.07;5.00;;;12.00;99.90;;;;;;5017579;28;20426;-58
2022/06/11 05:53:15;;;;;;;12.60;5.50;;;12.10;99.90;;;;;;5002524;28;21024;-59
2022/06/11 05:55:42;;;;;;;6.13;4.80;;;12.10;99.90;;;;;;5006677;28;20486;-57
2022/06/11 05:58:12;;;;;;;12.17;5.77;;;12.30;99.90;;;;;;5012210;28;20532;-59
2022/06/11 06:00:38;;;;;;;8.43;5.07;;;12.40;99.90;;;;;;5006620;28;20464;-59
2022/06/11 06:03:04;;;;;;;10.83;6.00;;;12.40;99.90;;;;;;5003976;28;20470;-59
2022/06/11 06:05:32;;;;;;;8.80;5.60;;;12.50;99.90;;;;;;5014683;28;20438;-59
2022/06/11 06:07:58;;;;;;;11.03;5.97;;;12.60;99.90;;;;;;5014059;28;20206;-59
2022/06/11 06:10:24;;;;;;;12.33;6.77;;;12.70;99.90;;;;;;5012311;28;20423;-59
2022/06/11 06:12:50;;;;;;;10.00;6.43;;;12.80;99.90;;;;;;4992645;28;20444;-59
2022/06/11 06:15:20;;;;;;;10.07;5.40;;;12.90;99.90;;;;;;5011102;28;20451;-58
2022/06/11 06:17:47;;;;;;;10.80;6.60;;;13.00;99.90;;;;;;5017008;28;20824;-59
2022/06/11 06:20:15;;;;;;;9.90;5.60;;;13.20;99.90;;;;;;5020500;28;20415;-60
2022/06/11 06:22:42;;;;;;;9.20;5.87;;;13.30;99.90;;;;;;4997993;28;21028;-59
2022/06/11 06:25:08;;;;;;;10.77;5.83;;;13.40;99.90;;;;;;5005012;28;20467;-58
2022/06/11 06:27:34;;;;;;;8.93;5.23;;;13.50;99.90;;;;;;5015472;28;20983;-59
2022/06/11 06:30:00;;;;;;;9.60;5.50;;;13.60;99.90;;;;;;5010031;28;20447;-60
2022/06/11 06:32:25;;;;;;;9.83;6.27;;;13.70;99.90;;;;;;5011590;28;20204;-59
2022/06/11 06:34:51;;;;;;;8.57;6.10;;;13.80;99.90;;;;;;5017680;28;20176;-58
2022/06/11 06:37:17;;;;;;;11.73;6.80;;;13.90;99.90;;;;;;4986479;28;20216;-59
2022/06/11 06:39:43;;;;;;;8.23;5.73;;;14.00;99.90;;;;;;5004998;28;20254;-59
2022/06/11 06:42:09;;;;;;;10.90;5.60;;;14.00;99.90;;;;;;5001565;28;20602;-59
2022/06/11 06:44:35;;;;;;;10.87;5.37;;;14.20;99.90;;;;;;4997767;28;20654;-58
2022/06/11 06:47:01;;;;;;;9.97;5.57;;;14.30;99.90;;;;;;4999380;28;20208;-59
2022/06/11 06:49:26;;;;;;;7.80;5.00;;;14.50;99.90;;;;;;4993316;28;20423;-58
2022/06/11 06:51:52;;;;;;;5.27;4.57;;;14.60;99.90;;;;;;5006696;28;21007;-60
2022/06/11 06:54:18;;;;;;;8.13;4.60;;;14.80;99.90;;;;;;5008713;28;20219;-58
2022/06/11 06:56:44;;;;;;;8.10;5.00;;;14.90;99.80;;;;;;5016956;28;20261;-59
2022/06/11 06:59:10;;;;;;;10.40;5.03;;;15.00;99.40;;;;;;5020795;28;20211;-60
2022/06/11 07:01:36;;;;;;;5.00;4.40;;;15.10;99.50;;;;;;5009618;28;21284;-59
2022/06/11 07:04:02;;;;;;;7.90;4.23;;;15.30;99.90;;;;;;5009696;28;20446;-59
2022/06/11 07:06:27;;;;;;;8.53;4.80;;;15.50;99.40;;;;;;5012245;28;20234;-59
2022/06/11 07:08:54;;;;;;;12.27;4.73;;;15.60;98.40;;;;;;5015128;28;20931;-60
2022/06/11 07:11:21;;;;;;;7.00;4.37;;;15.70;98.80;;;;;;5007899;28;20203;-60
2022/06/11 07:13:47;;;;;;;6.73;4.53;;;15.90;97.70;;;;;;5009101;28;20446;-58
2022/06/11 07:16:20;;;;;;;6.90;5.43;;;15.90;96.90;;;;;;5021463;28;20439;-59
2022/06/11 07:18:51;;;;;;;8.30;5.63;;;16.10;95.30;;;;;;5028560;28;20410;-59
2022/06/11 07:21:24;;;;;;;13.60;6.83;;;16.20;94.40;;;;;;4985130;28;20831;-59
2022/06/11 07:23:54;;;;;;;14.13;6.70;;;16.40;96.60;;;;;;5007765;28;20430;-60
2022/06/11 07:26:26;;;;;;;12.20;6.40;;;16.60;96.10;;;;;;5008011;28;20927;-60
2022/06/11 07:29:00;;;;;;;11.50;6.93;;;16.80;95.20;;;;;;5015271;28;20427;-60
2022/06/11 07:31:30;;;;;;;9.20;5.93;;;16.90;93.10;;;;;;5013843;28;21020;-60
2022/06/11 07:33:57;;;;;;;13.03;7.13;;;17.00;92.40;;;;;;5012581;28;20508;-60
2022/06/11 07:36:25;;;;;;;12.13;6.60;;;17.10;91.10;;;;;;5018708;28;20521;-60
2022/06/11 07:38:50;;;;;;;8.83;6.10;;;17.30;89.70;;;;;;5001069;28;20434;-60
2022/06/11 07:41:16;;;;;;;11.97;6.10;;;17.40;89.10;;;;;;5009007;28;20470;-59
2022/06/11 07:43:42;;;;;;;10.80;6.10;;;17.50;87.60;;;;;;5008246;28;20177;-60
2022/06/11 07:46:07;;;;;;;8.40;5.50;;;17.60;83.40;;;;;;4992665;28;20184;-60
2022/06/11 07:48:33;;;;;;;14.83;5.63;;;17.70;79.30;;;;;;5005458;28;20207;-60
2022/06/11 07:50:59;;;;;;;8.70;5.30;;;17.80;77.20;;;;;;5020204;28;20176;-60
2022/06/11 07:53:25;;;;;;;12.23;4.97;;;17.90;73.00;;;;;;5006804;28;20188;-60
2022/06/11 07:55:53;;;;;;;10.33;4.90;;;18.00;68.70;;;;;;5014236;28;20517;-60
2022/06/11 07:58:22;;;;;;;5.60;3.73;;;18.10;67.80;;;;;;5015868;28;20670;-60
2022/06/11 08:00:50;;;;;;;7.03;3.40;;;18.10;65.90;;;;;;5009029;28;21179;-60
2022/06/11 08:03:18;;;;;;;6.10;3.40;;;18.20;66.80;;;;;;5001753;28;20545;-60
2022/06/11 08:05:44;;;;;;;4.00;3.60;;;18.40;66.50;;;;;;4994973;28;20434;-60
2022/06/11 08:08:11;;;;;;;8.17;3.33;;;18.50;65.50;;;;;;5010472;28;20538;-59
2022/06/11 08:10:38;;;;;;;4.93;2.77;;;18.60;63.40;;;;;;5008037;28;20428;-60
2022/06/11 08:13:06;;;;;;;3.97;2.77;;;18.70;59.80;;;;;;5017558;28;20537;-60
2022/06/11 08:15:31;;;;;;;3.50;2.57;;;18.70;57.90;;;;;;5017355;28;21045;-59
2022/06/11 08:17:57;;;;;;;2.37;2.13;;;18.70;56.90;;;;;;5014125;28;20462;-60
2022/06/11 08:20:26;;;;;;;2.23;1.70;;;18.80;57.40;;;;;;5010508;28;20185;-60
2022/06/11 08:22:52;;;;;;;2.40;2.00;;;19.00;56.50;;;;;;5003763;28;20205;-60
2022/06/11 08:25:19;;;;;;;4.10;2.07;;;19.10;55.70;;;;;;5000183;28;20435;-60
2022/06/11 08:27:45;;;;;;;3.90;2.07;;;19.30;55.20;;;;;;5004136;28;20482;-61
2022/06/11 08:30:16;;;;;;;4.80;2.20;;;19.40;55.30;;;;;;5019421;28;20503;-60
2022/06/11 08:32:42;;;;;;;4.20;2.07;;;19.50;53.60;;;;;;5001515;28;20440;-60
2022/06/11 08:35:09;;;;;;;3.30;1.60;;;19.50;52.00;;;;;;5007690;28;20440;-59
2022/06/11 08:37:36;;;;;;;4.53;2.50;;;19.50;50.60;;;;;;5016265;28;20224;-60
2022/06/11 08:40:04;;;;;;;5.00;2.33;;;19.50;51.40;;;;;;4998331;28;20471;-60
2022/06/11 08:42:33;;;;;;;3.73;1.87;;;19.60;51.30;;;;;;5010756;28;20462;-59
2022/06/11 08:45:04;;;;;;;2.70;1.83;;;19.60;49.70;;;;;;4998931;28;20468;-59
2022/06/11 08:47:40;;;;;;;5.37;2.40;;;19.60;50.30;;;;;;5003841;28;20498;-60
2022/06/11 08:50:10;;;;;;;3.57;2.23;;;19.60;50.40;;;;;;5002195;28;20435;-60
2022/06/11 08:52:36;;;;;;;2.87;2.37;;;19.80;51.80;;;;;;5014025;28;20448;-60
2022/06/11 08:55:02;;;;;;;2.57;2.00;;;19.80;51.50;;;;;;5010211;28;20446;-60
2022/06/11 08:57:42;;;;;;;3.87;2.23;;;20.00;52.00;;;;;;5007329;28;20215;-61
2022/06/11 09:00:08;;;;;;;2.63;2.30;;;20.10;52.60;;;;;;4997824;28;20189;-60
2022/06/11 09:02:55;;;;;;;5.33;2.30;;;20.30;53.10;;;;;;4998118;28;20466;-61
2022/06/11 09:05:57;;;;;;;5.27;2.40;;;20.40;52.80;;;;;;4998667;28;20187;-60
2022/06/11 09:08:22;;;;;;;3.83;2.30;;;20.60;53.90;;;;;;5010809;28;21176;-60
2022/06/11 09:11:25;;;;;;;3.00;2.10;;;20.70;53.00;;;;;;5016361;28;20495;-61
2022/06/11 09:13:56;;;;;;;2.00;1.90;;;20.90;52.80;;;;;;5009034;28;20654;-60
2022/06/11 09:16:43;;;;;;;2.63;1.83;;;21.10;52.90;;;;;;5016032;28;20452;-60
2022/06/11 09:19:31;;;;;;;4.10;2.20;;;21.20;53.60;;;;;;4994395;28;20424;-61
2022/06/11 09:22:31;;;;;;;6.13;2.90;;;21.30;53.60;;;;;;5000193;28;20540;-61
2022/06/11 09:25:17;;;;;;;5.80;2.17;;;21.40;53.10;;;;;;4971116;28;20506;-60
2022/06/11 09:28:08;;;;;;;4.67;2.20;;;21.50;51.80;;;;;;4991232;28;20790;-59
2022/06/11 09:30:40;;;;;;;3.33;2.20;;;21.40;51.20;;;;;;4993405;28;20550;-61
2022/06/11 09:33:49;;;;;;;1.90;1.80;;;21.50;51.40;;;;;;5000469;28;20527;-60
2022/06/11 09:36:29;;;;;;;2.63;2.10;;;21.60;50.40;;;;;;4927931;29;21211;-60
2022/06/11 09:39:23;;;;;;;2.57;1.97;;;21.70;49.30;;;;;;4924457;29;20480;-60
2022/06/11 09:41:55;;;;;;;5.30;2.47;;;21.80;48.70;;;;;;4964206;28;21290;-59
2022/06/11 09:44:32;;;;;;;2.90;2.20;;;21.90;48.20;;;;;;4998484;28;20440;-60
2022/06/11 09:47:34;;;;;;;6.80;2.10;;;22.10;50.10;;;;;;5011643;28;20431;-59
2022/06/11 09:50:25;;;;;;;2.80;1.57;;;22.10;49.40;;;;;;5008185;28;21057;-60
2022/06/11 09:53:02;;;;;;;2.07;1.87;;;22.20;50.40;;;;;;4996596;28;20437;-59
2022/06/11 09:55:38;;;;;;;3.67;2.23;;;22.30;49.30;;;;;;5006370;28;20930;-59
2022/06/11 09:58:23;;;;;;;2.40;2.17;;;22.40;49.30;;;;;;5010994;28;20933;-59
2022/06/11 10:00:56;;;;;;;2.60;1.70;;;22.40;49.30;;;;;;5011531;28;20419;-60
2022/06/11 10:03:40;;;;;;;3.47;1.90;;;22.50;49.90;;;;;;5005259;28;20466;-60
2022/06/11 10:06:10;;;;;;;2.53;1.90;;;22.70;49.20;;;;;;5005108;28;20471;-59
2022/06/11 10:08:42;;;;;;;2.90;1.93;;;22.90;48.50;;;;;;5011015;28;20459;-60
2022/06/11 10:11:36;;;;;;;3.20;2.03;;;23.00;49.00;;;;;;4990026;28;20432;-59
2022/06/11 10:14:28;;;;;;;2.40;2.07;;;23.10;49.40;;;;;;5004823;28;20490;-60
2022/06/11 10:16:57;;;;;;;3.50;2.23;;;23.40;49.80;;;;;;5004600;28;20561;-59
2022/06/11 10:19:30;;;;;;;3.00;2.07;;;23.60;48.20;;;;;;5009925;28;21134;-59
2022/06/11 10:22:02;;;;;;;3.47;2.50;;;23.60;47.60;;;;;;5009802;28;20516;-59
2022/06/11 10:24:30;;;;;;;6.63;2.13;;;23.60;47.00;;;;;;5005788;28;20473;-60
2022/06/11 10:27:05;;;;;;;2.83;2.30;;;23.60;47.60;;;;;;5009423;28;20435;-59
2022/06/11 10:30:16;;;;;;;4.30;1.80;;;23.60;47.60;;;;;;5008146;28;20853;-59
2022/06/11 10:32:43;;;;;;;2.53;2.03;;;23.90;47.80;;;;;;4973659;28;20439;-60
2022/06/11 10:35:12;;;;;;;5.17;2.30;;;24.00;47.40;;;;;;5007744;28;20411;-60
2022/06/11 10:37:49;;;;;;;2.90;2.30;;;24.10;47.40;;;;;;4996564;28;20470;-59
2022/06/11 10:40:23;;;;;;;6.87;2.20;;;24.00;47.50;;;;;;5003771;28;20431;-60
2022/06/11 10:43:22;;;;;;;2.60;2.40;;;24.00;46.50;;;;;;5012523;28;20510;-59
2022/06/11 10:45:49;;;;;;;6.83;1.97;;;23.80;45.40;;;;;;5001545;28;20443;-60
2022/06/11 10:48:19;;;;;;;5.73;2.60;;;23.60;45.50;;;;;;5008532;28;20972;-60
2022/06/11 10:50:45;;;;;;;2.60;2.33;;;23.50;45.30;;;;;;5007193;28;20431;-59
2022/06/11 10:53:33;;;;;;;2.53;2.33;;;23.60;46.50;;;;;;5011761;28;20435;-59
2022/06/11 10:56:25;;;;;;;8.70;2.60;;;23.80;48.30;;;;;;4998136;28;20424;-60
2022/06/11 10:59:11;;;;;;;6.10;2.67;;;24.00;48.90;;;;;;5010911;28;20438;-60
2022/06/11 11:02:16;;;;;;;3.10;1.97;;;24.10;47.60;;;;;;5010102;28;20469;-60
2022/06/11 11:04:55;;;;;;;3.53;2.30;;;24.10;46.90;;;;;;5015461;28;20430;-60
2022/06/11 11:07:21;;;;;;;2.40;2.20;;;24.30;46.40;;;;;;5003744;28;20454;-60
2022/06/11 11:09:48;;;;;;;4.20;2.43;;;24.40;45.70;;;;;;5006340;28;20431;-60
2022/06/11 11:12:21;;;;;;;2.43;2.00;;;24.50;45.40;;;;;;5002028;28;20466;-60
2022/06/11 11:15:11;;;;;;;4.33;1.90;;;24.50;45.50;;;;;;4999468;28;20434;-60
2022/06/11 11:17:48;;;;;;;4.87;2.30;;;24.70;45.90;;;;;;5002298;28;20465;-59
2022/06/11 11:20:35;;;;;;;3.27;2.20;;;24.80;45.30;;;;;;5011545;28;20997;-59
2022/06/11 11:23:09;;;;;;;5.10;2.33;;;25.00;46.20;;;;;;5010847;28;20517;-59
2022/06/11 11:25:46;;;;;;;2.93;2.30;;;25.30;46.70;;;;;;5014604;28;20422;-60
2022/06/11 11:28:38;;;;;;;3.47;1.80;;;25.50;45.50;;;;;;5005690;28;20878;-60
2022/06/11 11:31:07;;;;;;;4.30;2.43;;;25.70;44.90;;;;;;5002123;28;20450;-59
2022/06/11 11:33:39;;;;;;;3.83;2.07;;;26.00;45.80;;;;;;5002174;28;20462;-59
2022/06/11 11:36:21;;;;;;;2.50;1.80;;;26.00;43.40;;;;;;5007644;28;21155;-60
2022/06/11 11:39:15;;;;;;;1.90;1.80;;;25.90;43.20;;;;;;4993911;28;20466;-60
2022/06/11 11:42:06;;;;;;;2.43;1.90;;;25.60;44.90;;;;;;5019858;28;20476;-60
2022/06/11 11:44:41;;;;;;;3.43;2.23;;;25.40;46.90;;;;;;5005889;28;20427;-60
2022/06/11 11:47:24;;;;;;;4.10;2.23;;;25.50;47.10;;;;;;5016510;28;20922;-60
2022/06/11 11:49:57;;;;;;;2.80;1.93;;;25.70;47.30;;;;;;5017590;28;20429;-59
2022/06/11 11:52:26;;;;;;;2.23;2.03;;;26.00;46.60;;;;;;5011950;28;20399;-60
2022/06/11 11:55:14;;;;;;;2.13;1.87;;;26.10;42.60;;;;;;5005080;28;20427;-60
2022/06/11 11:57:40;;;;;;;3.20;2.20;;;26.00;42.00;;;;;;5010476;28;20526;-60
2022/06/11 12:00:26;;;;;;;4.57;1.90;;;25.80;41.60;;;;;;5012052;28;20438;-60
2022/06/11 12:03:00;;;;;;;3.17;2.40;;;25.80;43.70;;;;;;5002895;28;20207;-60
2022/06/11 12:05:30;;;;;;;2.30;2.10;;;25.90;42.80;;;;;;5009923;28;20816;-59
2022/06/11 12:07:58;;;;;;;3.80;2.40;;;26.10;43.30;;;;;;5022377;28;20450;-60
2022/06/11 12:10:36;;;;;;;2.50;2.30;;;26.20;42.70;;;;;;5007375;28;20449;-60
2022/06/11 12:13:03;;;;;;;3.57;2.20;;;26.20;41.60;;;;;;5013674;28;20446;-60
2022/06/11 12:15:32;;;;;;;2.80;2.00;;;26.30;43.10;;;;;;5008871;28;20423;-60
2022/06/11 12:18:11;;;;;;;4.43;2.07;;;26.40;44.00;;;;;;5007263;28;20461;-60
2022/06/11 12:21:11;;;;;;;3.93;1.90;;;26.60;41.80;;;;;;5010381;28;20530;-59
2022/06/11 12:23:44;;;;;;;3.30;1.90;;;26.80;43.00;;;;;;4996828;28;20493;-59
2022/06/11 12:26:18;;;;;;;2.27;2.10;;;27.00;43.20;;;;;;5000537;28;20427;-60
2022/06/11 12:28:50;;;;;;;6.90;2.20;;;27.20;41.80;;;;;;5019451;28;20987;-59
2022/06/11 12:31:17;;;;;;;1.70;1.60;;;27.30;42.90;;;;;;5010322;28;20534;-59
2022/06/11 12:33:45;;;;;;;4.07;1.90;;;27.10;41.70;;;;;;4994800;28;20446;-60
2022/06/11 12:36:19;;;;;;;1.90;1.77;;;26.90;43.00;;;;;;5004154;28;20172;-60
2022/06/11 12:39:09;;;;;;;3.03;2.40;;;26.60;42.00;;;;;;5007889;28;20427;-61
2022/06/11 12:41:45;;;;;;;2.60;1.90;;;26.60;41.00;;;;;;5010435;28;21049;-60
2022/06/11 12:44:16;;;;;;;2.20;2.00;;;26.80;42.50;;;;;;5005283;28;20973;-60
2022/06/11 12:46:42;;;;;;;5.27;2.10;;;27.10;42.00;;;;;;5011575;28;20443;-58
2022/06/11 12:49:23;;;;;;;2.93;1.90;;;27.20;40.70;;;;;;5022823;28;20179;-60
2022/06/11 12:52:05;;;;;;;7.23;2.30;;;27.00;39.80;;;;;;5019508;28;20167;-60
2022/06/11 12:54:53;;;;;;;3.60;2.03;;;27.00;40.20;;;;;;5003750;28;20430;-60
2022/06/11 12:57:42;;;;;;;2.37;1.90;;;27.00;41.20;;;;;;5005753;28;20466;-60
2022/06/11 13:00:30;;;;;;;1.80;1.70;;;27.00;39.60;;;;;;5001091;28;20275;-60
2022/06/11 13:03:27;;;;;;;2.30;2.10;;;27.20;40.90;;;;;;5015032;28;20465;-60
2022/06/11 13:06:11;;;;;;;6.10;2.30;;;27.50;41.30;;;;;;4994532;28;20255;-60
2022/06/11 13:09:00;;;;;;;8.07;2.20;;;27.80;40.50;;;;;;5007873;28;20202;-61
2022/06/11 13:11:38;;;;;;;5.57;2.17;;;28.20;40.60;;;;;;4985712;28;20231;-60
2022/06/11 13:14:16;;;;;;;4.20;2.43;;;28.40;39.80;;;;;;5005464;28;20418;-60
2022/06/11 13:17:17;;;;;;;3.33;1.87;;;28.50;39.20;;;;;;5019018;28;20673;-60
2022/06/11 13:19:55;;;;;;;3.13;2.40;;;28.10;38.50;;;;;;5006047;28;20661;-61
2022/06/11 13:22:27;;;;;;;2.60;2.20;;;27.70;40.00;;;;;;5008328;28;20644;-61